CPT477 KDEN-MPTO
Flight info
| Callsign | CPT477 |
|---|---|
| Flight time | N/A |
| Altitude | 33000 |
| Route | EPKEE7 DUUZE DCT ADM DCT LFK/N0451F350 DCT WAHOO DCT KEHLI UA766 SIGMA UM205 TEKUG DCT SPP DCT MORLI OSUPA2C |
| Aircraft | B738/M-SDE2E3FGHIRWXY/LB1 |
Departure
| Time | 2026-05-05 18:50 |
|---|---|
| Airport | Denver International Airport (KDEN) |
Arrival
| Time | N/A |
|---|---|
| Airport | Tocumen International Airport (MPTO) |
| Time | Latitude | Longitude | Altitude | Speed | Heading |
|---|---|---|---|---|---|
| 2026-05-05 18:14 | 39.85338 | -104.67255 | 5386 ft | 0 kts | 4° |
| 2026-05-05 18:38 | 39.85332 | -104.67255 | 5385 ft | 2 kts | 4° |
| 2026-05-05 18:39 | 39.85316 | -104.67257 | 5385 ft | 2 kts | 4° |
| 2026-05-05 18:39 | 39.85300 | -104.67259 | 5384 ft | 2 kts | 4° |
| 2026-05-05 18:39 | 39.85284 | -104.67255 | 5383 ft | 2 kts | 300° |
| 2026-05-05 18:39 | 39.85281 | -104.67239 | 5381 ft | 2 kts | 265° |
| 2026-05-05 18:40 | 39.85279 | -104.67252 | 5383 ft | 0 kts | 267° |
| 2026-05-05 18:43 | 39.85278 | -104.67257 | 5384 ft | 2 kts | 257° |
| 2026-05-05 18:43 | 39.85262 | -104.67289 | 5385 ft | 5 kts | 234° |
| 2026-05-05 18:43 | 39.85244 | -104.67325 | 5385 ft | 5 kts | 244° |
| 2026-05-05 18:43 | 39.85237 | -104.67366 | 5385 ft | 5 kts | 266° |
| 2026-05-05 18:44 | 39.85237 | -104.67409 | 5385 ft | 6 kts | 269° |
| 2026-05-05 18:44 | 39.85237 | -104.67485 | 5385 ft | 9 kts | 270° |
| 2026-05-05 18:44 | 39.85237 | -104.67567 | 5385 ft | 9 kts | 270° |
| 2026-05-05 18:44 | 39.85238 | -104.67647 | 5385 ft | 9 kts | 270° |
| 2026-05-05 18:45 | 39.85239 | -104.67724 | 5385 ft | 8 kts | 271° |
| 2026-05-05 18:45 | 39.85239 | -104.67804 | 5385 ft | 10 kts | 270° |
| 2026-05-05 18:45 | 39.85240 | -104.67896 | 5385 ft | 11 kts | 270° |
| 2026-05-05 18:45 | 39.85240 | -104.67990 | 5385 ft | 10 kts | 270° |
| 2026-05-05 18:46 | 39.85241 | -104.68080 | 5385 ft | 10 kts | 271° |
| 2026-05-05 18:46 | 39.85241 | -104.68169 | 5385 ft | 10 kts | 263° |
| 2026-05-05 18:46 | 39.85226 | -104.68252 | 5387 ft | 9 kts | 254° |
| 2026-05-05 18:46 | 39.85209 | -104.68334 | 5387 ft | 9 kts | 259° |
| 2026-05-05 18:47 | 39.85206 | -104.68427 | 5374 ft | 15 kts | 270° |
| 2026-05-05 18:47 | 39.85205 | -104.68586 | 5367 ft | 18 kts | 269° |
| 2026-05-05 18:47 | 39.85202 | -104.68751 | 5361 ft | 18 kts | 268° |
| 2026-05-05 18:47 | 39.85199 | -104.68911 | 5355 ft | 17 kts | 269° |
| 2026-05-05 18:48 | 39.85197 | -104.69065 | 5350 ft | 17 kts | 269° |
| 2026-05-05 18:48 | 39.85198 | -104.69213 | 5347 ft | 16 kts | 271° |
| 2026-05-05 18:48 | 39.85201 | -104.69356 | 5343 ft | 15 kts | 272° |
| 2026-05-05 18:48 | 39.85202 | -104.69493 | 5338 ft | 15 kts | 270° |
| 2026-05-05 18:49 | 39.85203 | -104.69612 | 5333 ft | 11 kts | 270° |
| 2026-05-05 18:49 | 39.85211 | -104.69659 | 5332 ft | 2 kts | 336° |
| 2026-05-05 18:49 | 39.85234 | -104.69659 | 5332 ft | 13 kts | 359° |
| 2026-05-05 18:49 | 39.85545 | -104.69657 | 5339 ft | 75 kts | 0° |
| 2026-05-05 18:50 | 39.86269 | -104.69650 | 5334 ft | 131 kts | 0° |
| 2026-05-05 18:50 | 39.87347 | -104.69626 | 5348 ft | 177 kts | 359° |
| 2026-05-05 18:50 | 39.88610 | -104.69672 | 5903 ft | 185 kts | 360° |
| 2026-05-05 18:50 | 39.89901 | -104.69601 | 6653 ft | 187 kts | 22° |
| 2026-05-05 18:51 | 39.91042 | -104.68679 | 6901 ft | 206 kts | 53° |
| 2026-05-05 18:51 | 39.91579 | -104.66919 | 7085 ft | 219 kts | 91° |
| 2026-05-05 18:51 | 39.91176 | -104.64986 | 7430 ft | 230 kts | 116° |
| 2026-05-05 18:51 | 39.90416 | -104.63105 | 7931 ft | 238 kts | 118° |
| 2026-05-05 18:52 | 39.89613 | -104.61133 | 8230 ft | 258 kts | 118° |
| 2026-05-05 18:52 | 39.88761 | -104.59022 | 8768 ft | 265 kts | 119° |
| 2026-05-05 18:52 | 39.87902 | -104.56874 | 9412 ft | 270 kts | 119° |
| 2026-05-05 18:52 | 39.87034 | -104.54684 | 9977 ft | 276 kts | 119° |
| 2026-05-05 18:53 | 39.86137 | -104.52412 | 9978 ft | 285 kts | 119° |
| 2026-05-05 18:53 | 39.85235 | -104.50115 | 9977 ft | 284 kts | 119° |
| 2026-05-05 18:53 | 39.84344 | -104.47841 | 9988 ft | 281 kts | 119° |
| 2026-05-05 18:53 | 39.83472 | -104.45616 | 9979 ft | 279 kts | 119° |
| 2026-05-05 18:54 | 39.82591 | -104.43371 | 9997 ft | 280 kts | 119° |
| 2026-05-05 18:54 | 39.81704 | -104.41113 | 9988 ft | 281 kts | 119° |
| 2026-05-05 18:54 | 39.80820 | -104.38843 | 9991 ft | 283 kts | 118° |
| 2026-05-05 18:54 | 39.79973 | -104.36468 | 10091 ft | 299 kts | 116° |
| 2026-05-05 18:55 | 39.79094 | -104.33912 | 10269 ft | 319 kts | 116° |
| 2026-05-05 18:55 | 39.78172 | -104.31222 | 10613 ft | 331 kts | 116° |
| 2026-05-05 18:55 | 39.77222 | -104.28458 | 11110 ft | 339 kts | 116° |
| 2026-05-05 18:55 | 39.76249 | -104.25639 | 11597 ft | 345 kts | 116° |
| 2026-05-05 18:56 | 39.75251 | -104.22762 | 12070 ft | 352 kts | 116° |
| 2026-05-05 18:56 | 39.74236 | -104.19844 | 12550 ft | 358 kts | 116° |
| 2026-05-05 18:56 | 39.73196 | -104.16864 | 13019 ft | 365 kts | 116° |
| 2026-05-05 18:56 | 39.72137 | -104.13837 | 13486 ft | 371 kts | 117° |
| 2026-05-05 18:57 | 39.71049 | -104.10758 | 13947 ft | 379 kts | 117° |
| 2026-05-05 18:57 | 39.69946 | -104.07645 | 14561 ft | 379 kts | 117° |
| 2026-05-05 18:57 | 39.68842 | -104.04531 | 15211 ft | 380 kts | 117° |
| 2026-05-05 18:57 | 39.67732 | -104.01401 | 15744 ft | 384 kts | 117° |
| 2026-05-05 18:58 | 39.66611 | -103.98243 | 16315 ft | 387 kts | 117° |
| 2026-05-05 18:58 | 39.65479 | -103.95064 | 16925 ft | 388 kts | 117° |
| 2026-05-05 18:58 | 39.64260 | -103.91938 | 17530 ft | 389 kts | 120° |
| 2026-05-05 18:58 | 39.62968 | -103.88842 | 18110 ft | 392 kts | 121° |
| 2026-05-05 18:59 | 39.61659 | -103.85719 | 18618 ft | 395 kts | 121° |
| 2026-05-05 18:59 | 39.60352 | -103.82566 | 19094 ft | 399 kts | 121° |
| 2026-05-05 18:59 | 39.59059 | -103.79373 | 19554 ft | 403 kts | 118° |
| 2026-05-05 18:59 | 39.57954 | -103.76007 | 19999 ft | 408 kts | 113° |
| 2026-05-05 19:00 | 39.56981 | -103.72532 | 20444 ft | 412 kts | 111° |
| 2026-05-05 19:00 | 39.56044 | -103.69003 | 20879 ft | 416 kts | 111° |
| 2026-05-05 19:00 | 39.55099 | -103.65441 | 21304 ft | 420 kts | 111° |
| 2026-05-05 19:00 | 39.54128 | -103.61854 | 21731 ft | 424 kts | 112° |
| 2026-05-05 19:01 | 39.53132 | -103.58242 | 22151 ft | 427 kts | 112° |
| 2026-05-05 19:01 | 39.52114 | -103.54610 | 22565 ft | 431 kts | 112° |
| 2026-05-05 19:01 | 39.51077 | -103.50946 | 22958 ft | 435 kts | 112° |
| 2026-05-05 19:01 | 39.50028 | -103.47257 | 23348 ft | 439 kts | 113° |
| 2026-05-05 19:02 | 39.48965 | -103.43532 | 23705 ft | 443 kts | 113° |
| 2026-05-05 19:02 | 39.47894 | -103.39784 | 24022 ft | 446 kts | 113° |
| 2026-05-05 19:02 | 39.46812 | -103.36003 | 24333 ft | 450 kts | 114° |
| 2026-05-05 19:02 | 39.45721 | -103.32193 | 24638 ft | 453 kts | 114° |
| 2026-05-05 19:03 | 39.44622 | -103.28357 | 24943 ft | 457 kts | 114° |
| 2026-05-05 19:03 | 39.43513 | -103.24493 | 25238 ft | 460 kts | 114° |
| 2026-05-05 19:03 | 39.42392 | -103.20595 | 25517 ft | 464 kts | 115° |
| 2026-05-05 19:03 | 39.41264 | -103.16674 | 25822 ft | 467 kts | 115° |
| 2026-05-05 19:04 | 39.40126 | -103.12727 | 26115 ft | 470 kts | 115° |
| 2026-05-05 19:04 | 39.38996 | -103.08812 | 26406 ft | 473 kts | 115° |
| 2026-05-05 19:04 | 39.37841 | -103.04814 | 26680 ft | 476 kts | 116° |
| 2026-05-05 19:04 | 39.36676 | -103.00786 | 26948 ft | 480 kts | 116° |
| 2026-05-05 19:05 | 39.35503 | -102.96742 | 27213 ft | 483 kts | 116° |
| 2026-05-05 19:05 | 39.34260 | -102.92707 | 27461 ft | 483 kts | 121° |
| 2026-05-05 19:05 | 39.32811 | -102.88795 | 27724 ft | 483 kts | 124° |
| 2026-05-05 19:05 | 39.31253 | -102.84943 | 27995 ft | 485 kts | 125° |
| 2026-05-05 19:06 | 39.29662 | -102.81094 | 28267 ft | 487 kts | 126° |
| 2026-05-05 19:06 | 39.28073 | -102.77218 | 28513 ft | 491 kts | 125° |
| 2026-05-05 19:06 | 39.26493 | -102.73299 | 28758 ft | 494 kts | 125° |
| 2026-05-05 19:06 | 39.24917 | -102.69336 | 29010 ft | 497 kts | 125° |
| 2026-05-05 19:07 | 39.23347 | -102.65353 | 29256 ft | 500 kts | 125° |
| 2026-05-05 19:07 | 39.21769 | -102.61340 | 29496 ft | 503 kts | 125° |
| 2026-05-05 19:07 | 39.20182 | -102.57306 | 29735 ft | 505 kts | 126° |
| 2026-05-05 19:07 | 39.18589 | -102.53267 | 30017 ft | 506 kts | 126° |
| 2026-05-05 19:08 | 39.16990 | -102.49219 | 30306 ft | 506 kts | 126° |
| 2026-05-05 19:08 | 39.15393 | -102.45187 | 30588 ft | 506 kts | 126° |
| 2026-05-05 19:08 | 39.13792 | -102.41154 | 30852 ft | 506 kts | 127° |
| 2026-05-05 19:08 | 39.12183 | -102.37124 | 31101 ft | 506 kts | 127° |
| 2026-05-05 19:09 | 39.10564 | -102.33089 | 31337 ft | 507 kts | 127° |
| 2026-05-05 19:09 | 39.08945 | -102.29062 | 31582 ft | 507 kts | 127° |
| 2026-05-05 19:09 | 39.07324 | -102.25035 | 31820 ft | 507 kts | 128° |
| 2026-05-05 19:09 | 39.05704 | -102.21014 | 32046 ft | 507 kts | 128° |
| 2026-05-05 19:10 | 39.04077 | -102.16979 | 32255 ft | 508 kts | 128° |
| 2026-05-05 19:10 | 39.02448 | -102.12941 | 32461 ft | 509 kts | 128° |
| 2026-05-05 19:10 | 39.00819 | -102.08908 | 32703 ft | 509 kts | 128° |
| 2026-05-05 19:10 | 38.99189 | -102.04874 | 32946 ft | 508 kts | 128° |
| 2026-05-05 19:11 | 38.95903 | -101.96771 | 33001 ft | 513 kts | 128° |
| 2026-05-05 19:11 | 38.92623 | -101.88686 | 32996 ft | 508 kts | 128° |
| 2026-05-05 19:12 | 38.89376 | -101.80709 | 33006 ft | 506 kts | 128° |
| 2026-05-05 19:12 | 38.86088 | -101.72680 | 33052 ft | 511 kts | 130° |
| 2026-05-05 19:13 | 38.84108 | -101.68993 | 33034 ft | 490 kts | 147° |
| 2026-05-05 19:13 | 38.81625 | -101.66145 | 33138 ft | 477 kts | 154° |
| 2026-05-05 19:13 | 38.79039 | -101.63464 | 33267 ft | 478 kts | 155° |
| 2026-05-05 19:13 | 38.76437 | -101.60801 | 33427 ft | 479 kts | 155° |
| 2026-05-05 19:14 | 38.73974 | -101.58274 | 33631 ft | 479 kts | 154° |
| 2026-05-05 19:14 | 38.71382 | -101.55594 | 33870 ft | 478 kts | 154° |
| 2026-05-05 19:14 | 38.68801 | -101.52906 | 34080 ft | 478 kts | 154° |
| 2026-05-05 19:14 | 38.66229 | -101.50214 | 34263 ft | 478 kts | 154° |
| 2026-05-05 19:15 | 38.63657 | -101.47515 | 34430 ft | 478 kts | 154° |
| 2026-05-05 19:15 | 38.61091 | -101.44819 | 34587 ft | 478 kts | 154° |
| 2026-05-05 19:15 | 38.58521 | -101.42121 | 34770 ft | 477 kts | 154° |
| 2026-05-05 19:15 | 38.55962 | -101.39435 | 34939 ft | 476 kts | 154° |
| 2026-05-05 19:16 | 38.50827 | -101.34061 | 34973 ft | 478 kts | 154° |
| 2026-05-05 19:16 | 38.45677 | -101.28683 | 34982 ft | 478 kts | 154° |
| 2026-05-05 19:17 | 38.40535 | -101.23320 | 35000 ft | 477 kts | 154° |
| 2026-05-05 19:17 | 38.35394 | -101.17970 | 35000 ft | 477 kts | 154° |
| 2026-05-05 19:18 | 38.30284 | -101.12664 | 35001 ft | 477 kts | 154° |
| 2026-05-05 19:18 | 38.25140 | -101.07332 | 34991 ft | 477 kts | 154° |
| 2026-05-05 19:19 | 38.20000 | -101.02013 | 34989 ft | 476 kts | 154° |
| 2026-05-05 19:19 | 38.14858 | -100.96704 | 34971 ft | 476 kts | 154° |
| 2026-05-05 19:20 | 38.09716 | -100.91405 | 34971 ft | 476 kts | 154° |
| 2026-05-05 19:20 | 38.04567 | -100.86108 | 34980 ft | 476 kts | 154° |
| 2026-05-05 19:21 | 37.99415 | -100.80817 | 35009 ft | 477 kts | 154° |
| 2026-05-05 19:21 | 37.94252 | -100.75527 | 34993 ft | 478 kts | 154° |
| 2026-05-05 19:22 | 37.89080 | -100.70236 | 35005 ft | 478 kts | 154° |
| 2026-05-05 19:22 | 37.83898 | -100.64944 | 34994 ft | 479 kts | 154° |
| 2026-05-05 19:23 | 37.78706 | -100.59652 | 34980 ft | 480 kts | 154° |
| 2026-05-05 19:23 | 37.73509 | -100.54364 | 34964 ft | 480 kts | 154° |
| 2026-05-05 19:24 | 37.68299 | -100.49072 | 34951 ft | 481 kts | 154° |
| 2026-05-05 19:24 | 37.63965 | -100.44679 | 34939 ft | 481 kts | 154° |
| 2026-05-05 19:25 | 37.58749 | -100.39400 | 34938 ft | 481 kts | 154° |
| 2026-05-05 19:25 | 37.53530 | -100.34127 | 34929 ft | 481 kts | 154° |
| 2026-05-05 19:26 | 37.48304 | -100.28857 | 34936 ft | 481 kts | 154° |
| 2026-05-05 19:26 | 37.43082 | -100.23601 | 34930 ft | 481 kts | 154° |
| 2026-05-05 19:27 | 37.37859 | -100.18354 | 34940 ft | 481 kts | 154° |
| 2026-05-05 19:27 | 37.32629 | -100.13110 | 34936 ft | 481 kts | 154° |
| 2026-05-05 19:28 | 37.27400 | -100.07877 | 34935 ft | 481 kts | 154° |
| 2026-05-05 19:28 | 37.22167 | -100.02649 | 34930 ft | 481 kts | 155° |
| 2026-05-05 19:29 | 37.16964 | -99.97459 | 34931 ft | 481 kts | 155° |
| 2026-05-05 19:29 | 37.11730 | -99.92248 | 34941 ft | 481 kts | 155° |
| 2026-05-05 19:30 | 37.06491 | -99.87043 | 34936 ft | 481 kts | 155° |
| 2026-05-05 19:30 | 37.01249 | -99.81844 | 34937 ft | 480 kts | 155° |
| 2026-05-05 19:31 | 36.96011 | -99.76658 | 34933 ft | 480 kts | 155° |
| 2026-05-05 19:31 | 36.90769 | -99.71477 | 34928 ft | 480 kts | 155° |
| 2026-05-05 19:32 | 36.85522 | -99.66301 | 34933 ft | 480 kts | 155° |
| 2026-05-05 19:32 | 36.80283 | -99.61141 | 34931 ft | 480 kts | 155° |
| 2026-05-05 19:33 | 36.75040 | -99.55988 | 34937 ft | 480 kts | 155° |
| 2026-05-05 19:33 | 36.69798 | -99.50844 | 34940 ft | 479 kts | 155° |
| 2026-05-05 19:34 | 36.64557 | -99.45711 | 34946 ft | 479 kts | 156° |
| 2026-05-05 19:35 | 36.56692 | -99.38025 | 34950 ft | 479 kts | 156° |
| 2026-05-05 19:35 | 36.51446 | -99.32910 | 34962 ft | 479 kts | 156° |
| 2026-05-05 19:36 | 36.46190 | -99.27795 | 34935 ft | 480 kts | 156° |
| 2026-05-05 19:36 | 36.40929 | -99.22684 | 34933 ft | 480 kts | 156° |
| 2026-05-05 19:37 | 36.35662 | -99.17575 | 34914 ft | 481 kts | 156° |
| 2026-05-05 19:37 | 36.30383 | -99.12464 | 34895 ft | 482 kts | 156° |
| 2026-05-05 19:38 | 36.25093 | -99.07352 | 34891 ft | 483 kts | 156° |
| 2026-05-05 19:38 | 36.19791 | -99.02236 | 34883 ft | 483 kts | 156° |
| 2026-05-05 19:39 | 36.14480 | -98.97122 | 34884 ft | 484 kts | 156° |
| 2026-05-05 19:39 | 36.09153 | -98.92001 | 34878 ft | 485 kts | 156° |
| 2026-05-05 19:40 | 36.03813 | -98.86876 | 34879 ft | 487 kts | 156° |
| 2026-05-05 19:40 | 35.98452 | -98.81741 | 34878 ft | 488 kts | 155° |
| 2026-05-05 19:41 | 35.93114 | -98.76636 | 34890 ft | 489 kts | 155° |
| 2026-05-05 19:41 | 35.87721 | -98.71487 | 34892 ft | 490 kts | 155° |
| 2026-05-05 19:42 | 35.82324 | -98.66343 | 34910 ft | 491 kts | 155° |
| 2026-05-05 19:42 | 35.76924 | -98.61203 | 34909 ft | 490 kts | 155° |
| 2026-05-05 19:43 | 35.71524 | -98.56075 | 34910 ft | 490 kts | 155° |
| 2026-05-05 19:43 | 35.66125 | -98.50956 | 34874 ft | 490 kts | 155° |
| 2026-05-05 19:44 | 35.60728 | -98.45850 | 34874 ft | 489 kts | 155° |
| 2026-05-05 19:44 | 35.55335 | -98.40755 | 34865 ft | 489 kts | 155° |
| 2026-05-05 19:45 | 35.49945 | -98.35672 | 34853 ft | 488 kts | 155° |
| 2026-05-05 19:45 | 35.44558 | -98.30601 | 34844 ft | 488 kts | 155° |
| 2026-05-05 19:46 | 35.39174 | -98.25542 | 34848 ft | 487 kts | 155° |
| 2026-05-05 19:46 | 35.33787 | -98.20489 | 34844 ft | 487 kts | 155° |
| 2026-05-05 19:47 | 35.28398 | -98.15445 | 34846 ft | 488 kts | 155° |
| 2026-05-05 19:47 | 35.23001 | -98.10400 | 34858 ft | 489 kts | 155° |
| 2026-05-05 19:48 | 35.17593 | -98.05353 | 34882 ft | 490 kts | 155° |
| 2026-05-05 19:48 | 35.12172 | -98.00302 | 34880 ft | 491 kts | 155° |
| 2026-05-05 19:49 | 35.06739 | -97.95249 | 34879 ft | 492 kts | 155° |
| 2026-05-05 19:49 | 35.01292 | -97.90193 | 34878 ft | 492 kts | 155° |
| 2026-05-05 19:50 | 34.95834 | -97.85133 | 34866 ft | 493 kts | 155° |
| 2026-05-05 19:50 | 34.90369 | -97.80075 | 34835 ft | 494 kts | 155° |
| 2026-05-05 19:51 | 34.84889 | -97.75014 | 34808 ft | 494 kts | 155° |
| 2026-05-05 19:51 | 34.79440 | -97.69988 | 34777 ft | 495 kts | 155° |
| 2026-05-05 19:52 | 34.73917 | -97.64903 | 34774 ft | 495 kts | 155° |
| 2026-05-05 19:52 | 34.68464 | -97.59891 | 34783 ft | 495 kts | 155° |
| 2026-05-05 19:53 | 34.62975 | -97.54856 | 34787 ft | 495 kts | 155° |
| 2026-05-05 19:53 | 34.57478 | -97.49821 | 34773 ft | 495 kts | 155° |
| 2026-05-05 19:54 | 34.51972 | -97.44788 | 34780 ft | 495 kts | 155° |
| 2026-05-05 19:54 | 34.46466 | -97.39762 | 34774 ft | 496 kts | 155° |
| 2026-05-05 19:55 | 34.40950 | -97.34735 | 34748 ft | 496 kts | 155° |
| 2026-05-05 19:55 | 34.35436 | -97.29718 | 34751 ft | 496 kts | 155° |
| 2026-05-05 19:56 | 34.29921 | -97.24708 | 34753 ft | 496 kts | 155° |
| 2026-05-05 19:56 | 34.24406 | -97.19705 | 34747 ft | 496 kts | 155° |
| 2026-05-05 19:57 | 34.18878 | -97.14748 | 34747 ft | 493 kts | 157° |
| 2026-05-05 19:57 | 34.13268 | -97.10045 | 34746 ft | 490 kts | 158° |
| 2026-05-05 19:58 | 34.07643 | -97.05420 | 34733 ft | 490 kts | 158° |
| 2026-05-05 19:58 | 34.02020 | -97.00769 | 34732 ft | 490 kts | 158° |
| 2026-05-05 19:59 | 33.96444 | -96.96132 | 34725 ft | 491 kts | 158° |
| 2026-05-05 19:59 | 33.90829 | -96.91458 | 34729 ft | 490 kts | 158° |
| 2026-05-05 20:00 | 33.85218 | -96.86793 | 34737 ft | 490 kts | 158° |
| 2026-05-05 20:00 | 33.79609 | -96.82140 | 34754 ft | 489 kts | 158° |
| 2026-05-05 20:01 | 33.74160 | -96.77630 | 34761 ft | 489 kts | 158° |
| 2026-05-05 20:01 | 33.68550 | -96.72993 | 34767 ft | 489 kts | 158° |
| 2026-05-05 20:02 | 33.62941 | -96.68366 | 34771 ft | 489 kts | 158° |
| 2026-05-05 20:02 | 33.57324 | -96.63739 | 34759 ft | 489 kts | 158° |
| 2026-05-05 20:03 | 33.51742 | -96.59148 | 34757 ft | 490 kts | 158° |
| 2026-05-05 20:03 | 33.46106 | -96.54520 | 34742 ft | 491 kts | 158° |
| 2026-05-05 20:04 | 33.40459 | -96.49890 | 34747 ft | 492 kts | 158° |
| 2026-05-05 20:04 | 33.34804 | -96.45261 | 34751 ft | 493 kts | 158° |
| 2026-05-05 20:05 | 33.29134 | -96.40626 | 34746 ft | 494 kts | 158° |
| 2026-05-05 20:05 | 33.23456 | -96.35994 | 34748 ft | 494 kts | 158° |
| 2026-05-05 20:06 | 33.17774 | -96.31364 | 34747 ft | 495 kts | 158° |
| 2026-05-05 20:06 | 33.12082 | -96.26734 | 34768 ft | 495 kts | 158° |
| 2026-05-05 20:07 | 33.06414 | -96.22131 | 34771 ft | 496 kts | 158° |
| 2026-05-05 20:07 | 33.00707 | -96.17503 | 34780 ft | 496 kts | 158° |
| 2026-05-05 20:08 | 32.95000 | -96.12883 | 34779 ft | 496 kts | 158° |
| 2026-05-05 20:08 | 32.89285 | -96.08263 | 34777 ft | 496 kts | 158° |
| 2026-05-05 20:09 | 32.83578 | -96.03658 | 34765 ft | 496 kts | 158° |
| 2026-05-05 20:09 | 32.77902 | -95.99085 | 34761 ft | 496 kts | 158° |
| 2026-05-05 20:10 | 32.72190 | -95.94490 | 34767 ft | 495 kts | 158° |
| 2026-05-05 20:10 | 32.66478 | -95.89902 | 34767 ft | 495 kts | 158° |
| 2026-05-05 20:11 | 32.60767 | -95.85323 | 34768 ft | 495 kts | 158° |
| 2026-05-05 20:11 | 32.55065 | -95.80758 | 34771 ft | 495 kts | 158° |
| 2026-05-05 20:12 | 32.49357 | -95.76195 | 34776 ft | 494 kts | 158° |
| 2026-05-05 20:12 | 32.44614 | -95.72409 | 34793 ft | 494 kts | 158° |
| 2026-05-05 20:13 | 32.38905 | -95.67858 | 34796 ft | 494 kts | 158° |
| 2026-05-05 20:13 | 32.33194 | -95.63313 | 34794 ft | 494 kts | 158° |
| 2026-05-05 20:14 | 32.27494 | -95.58783 | 34794 ft | 494 kts | 157° |
| 2026-05-05 20:14 | 32.21782 | -95.54251 | 34803 ft | 494 kts | 157° |
| 2026-05-05 20:15 | 32.16076 | -95.49731 | 34811 ft | 493 kts | 157° |
| 2026-05-05 20:15 | 32.10410 | -95.45250 | 34806 ft | 493 kts | 157° |
| 2026-05-05 20:16 | 32.04705 | -95.40744 | 34798 ft | 493 kts | 157° |
| 2026-05-05 20:16 | 31.98996 | -95.36242 | 34798 ft | 493 kts | 157° |
| 2026-05-05 20:17 | 31.93283 | -95.31744 | 34790 ft | 494 kts | 157° |
| 2026-05-05 20:17 | 31.87569 | -95.27251 | 34789 ft | 494 kts | 157° |
| 2026-05-05 20:18 | 31.81859 | -95.22769 | 34797 ft | 493 kts | 157° |
| 2026-05-05 20:18 | 31.76152 | -95.18296 | 34795 ft | 493 kts | 157° |
| 2026-05-05 20:19 | 31.70439 | -95.13825 | 34799 ft | 493 kts | 157° |
| 2026-05-05 20:19 | 31.64737 | -95.09367 | 34813 ft | 492 kts | 157° |
| 2026-05-05 20:20 | 31.59036 | -95.04919 | 34825 ft | 492 kts | 157° |
| 2026-05-05 20:20 | 31.53339 | -95.00480 | 34834 ft | 491 kts | 157° |
| 2026-05-05 20:21 | 31.47677 | -94.96076 | 34837 ft | 491 kts | 157° |
| 2026-05-05 20:21 | 31.41975 | -94.91647 | 34836 ft | 492 kts | 157° |
| 2026-05-05 20:22 | 31.36272 | -94.87223 | 34854 ft | 492 kts | 157° |
| 2026-05-05 20:22 | 31.30563 | -94.82801 | 34857 ft | 492 kts | 157° |
| 2026-05-05 20:23 | 31.24845 | -94.78377 | 34858 ft | 492 kts | 157° |
| 2026-05-05 20:23 | 31.19127 | -94.73960 | 34858 ft | 493 kts | 156° |
| 2026-05-05 20:24 | 31.13409 | -94.69545 | 34857 ft | 493 kts | 156° |
| 2026-05-05 20:24 | 31.07686 | -94.65110 | 34855 ft | 493 kts | 156° |
| 2026-05-05 20:25 | 31.02005 | -94.60708 | 34847 ft | 493 kts | 156° |
| 2026-05-05 20:25 | 30.96247 | -94.56253 | 34848 ft | 493 kts | 156° |
| 2026-05-05 20:26 | 30.91277 | -94.52415 | 34846 ft | 493 kts | 156° |
| 2026-05-05 20:26 | 30.85552 | -94.48001 | 34846 ft | 493 kts | 156° |
| 2026-05-05 20:27 | 30.79832 | -94.43596 | 34849 ft | 493 kts | 156° |
| 2026-05-05 20:27 | 30.74120 | -94.39205 | 34861 ft | 492 kts | 156° |
| 2026-05-05 20:28 | 30.68401 | -94.34816 | 34854 ft | 493 kts | 156° |